Terminal Aerodrome Forecast
Issued by NWS Chicago, IL

Home | Current Version | Previous Version | Text Only | Print | Product List | Glossary Off
Versions: 1 2 3 4 5 6 7 8 9 10 11 12 13 14 15 16 17 18 19 20 21 22 23 24 25 26 27 28 29

000
FTUS43 KLOT 241518 AAA
TAFRFD
TAF AMD
KRFD 241518Z 2415/2512 VRB04KT P6SM OVC015
     FM242100 12008KT P6SM OVC020
     FM250200 10012KT 6SM -RA BR OVC012
      TEMPO 2502/2506 3SM -RASN OVC009
     FM250600 11014G22KT 3SM -RA OVC007
      TEMPO 2508/2512 1 1/2SM -RASN OVC005=

USA.gov is the U.S. government's official web portal to all federal, state and local government web resources and services.